Time;durP1;ratioP1;P1;durP2;ratioP2;P2;SDS_P1;SDS_P2;PMS_P1;PMS_P2;Temp;Humidity;BMP_temperature;BMP_pressure;BME280_temperature;BME280_humidity;BME280_pressure;Samples;Min_cycle;Max_cycle;Signal;HPM_P1;HPM_P2
2022/05/03 00:01:17;;;;;;;13.20;6.15;;;;;;;15.15;56.15;99348.97;5017797;28;20025;-90
2022/05/03 00:04:06;;;;;;;17.38;6.65;;;;;;;15.37;56.18;99372.59;5036544;28;20026;-89
2022/05/03 00:07:02;;;;;;;10.80;6.78;;;;;;;15.32;57.87;99377.75;5036007;28;20041;-90
2022/05/03 00:09:59;;;;;;;13.25;6.22;;;;;;;15.08;57.13;99342.06;5036776;28;20017;-90
2022/05/03 00:12:33;;;;;;;9.43;6.10;;;;;;;15.02;57.26;99351.69;5036634;28;20414;-91
2022/05/03 00:15:00;;;;;;;13.73;6.50;;;;;;;14.60;57.22;99276.00;5018710;28;20040;-91
2022/05/03 00:17:26;;;;;;;11.10;6.93;;;;;;;14.89;57.55;99330.47;5018896;28;20416;-92
2022/05/03 00:19:55;;;;;;;11.93;6.97;;;;;;;14.27;57.79;99221.13;5018919;28;20036;-93
2022/05/03 00:22:21;;;;;;;10.05;6.93;;;;;;;14.69;57.97;99313.78;5036584;28;20025;-92
2022/05/03 00:24:47;;;;;;;9.27;6.70;;;;;;;15.27;57.98;99381.84;5036506;28;20040;-92
2022/05/03 00:27:14;;;;;;;10.18;6.65;;;;;;;15.27;58.48;99387.16;5018849;28;20029;-92
2022/05/03 00:29:40;;;;;;;10.13;6.60;;;;;;;14.55;57.79;99262.53;5018840;28;20627;-92
2022/05/03 00:32:06;;;;;;;9.27;6.60;;;;;;;15.05;58.67;99351.28;5018692;28;20033;-92
2022/05/03 00:34:35;;;;;;;10.35;6.65;;;;;;;14.64;58.60;99293.16;5035931;28;20028;-92
2022/05/03 00:37:00;;;;;;;8.57;6.90;;;;;;;14.82;58.59;99333.13;5036103;28;20025;-92
2022/05/03 00:39:26;;;;;;;11.32;6.82;;;;;;;14.97;59.05;99375.44;5036565;28;20067;-91
2022/05/03 00:42:19;;;;;;;10.13;6.45;;;;;;;15.07;59.59;99372.34;5036387;28;20025;-91
2022/05/03 00:45:11;;;;;;;7.93;6.05;;;;;;;14.81;60.08;99358.09;5036284;28;20110;-91
2022/05/03 00:47:58;;;;;;;10.13;6.03;;;;;;;14.91;59.75;99370.97;5035818;28;20486;-91
2022/05/03 00:50:26;;;;;;;8.80;6.15;;;;;;;15.04;59.26;99375.41;5017973;28;20037;-91
2022/05/03 00:53:08;;;;;;;8.75;5.95;;;;;;;14.99;59.29;99364.59;5035741;28;20037;-91
2022/05/03 00:56:10;;;;;;;6.78;6.03;;;;;;;14.94;60.29;99374.03;5018000;28;20029;-91
2022/05/03 00:58:54;;;;;;;6.13;5.53;;;;;;;14.92;60.28;99373.41;5017645;28;20049;-91
2022/05/03 01:01:40;;;;;;;8.05;6.15;;;;;;;14.52;59.86;99308.09;5018041;28;20060;-92
2022/05/03 01:04:29;;;;;;;7.78;6.07;;;;;;;14.63;59.53;99318.91;5017862;28;20513;-93
2022/05/03 01:07:16;;;;;;;9.40;5.53;;;;;;;14.27;59.73;99278.72;5018540;28;20461;-92
2022/05/03 01:10:20;;;;;;;7.93;5.53;;;;;;;14.37;59.80;99313.63;5018229;28;20021;-93
2022/05/03 01:13:06;;;;;;;9.48;6.57;;;;;;;14.84;60.03;99368.31;5020107;28;20047;-93
2022/05/03 01:15:37;;;;;;;9.23;6.15;;;;;;;13.80;59.83;99235.50;5018081;28;20034;-92
2022/05/03 01:18:24;;;;;;;8.32;6.18;;;;;;;14.79;59.69;99367.28;5017896;28;20490;-93
2022/05/03 01:21:08;;;;;;;9.15;5.93;;;;;;;14.77;59.87;99359.53;5018269;28;20037;-93
2022/05/03 01:23:57;;;;;;;7.55;6.20;;;;;;;14.77;60.70;99361.38;5017934;28;20572;-93
2022/05/03 01:26:52;;;;;;;9.82;6.78;;;;;;;14.73;60.75;99362.81;5035129;28;20025;-93
2022/05/03 01:29:35;;;;;;;10.32;6.90;;;;;;;14.70;60.77;99358.75;5035109;28;20513;-93
2022/05/03 01:32:11;;;;;;;9.57;6.53;;;;;;;14.38;60.57;99304.63;5035017;28;20036;-93
2022/05/03 01:34:37;;;;;;;9.68;6.40;;;;;;;14.46;60.22;99309.75;5035240;28;20115;-93
2022/05/03 01:37:40;;;;;;;9.07;6.53;;;;;;;14.65;61.54;99345.25;5035442;28;20029;-93
2022/05/03 01:40:23;;;;;;;11.35;6.93;;;;;;;14.44;61.70;99319.78;5017755;28;20044;-93
2022/05/03 01:43:14;;;;;;;11.32;6.47;;;;;;;14.62;61.27;99349.16;5035089;28;20029;-92
2022/05/03 01:45:48;;;;;;;9.55;6.30;;;;;;;14.63;61.10;99339.34;5017577;28;20032;-92
2022/05/03 01:48:23;;;;;;;7.80;6.68;;;;;;;14.62;61.48;99349.16;5016769;28;20026;-92
2022/05/03 01:51:01;;;;;;;8.50;6.63;;;;;;;13.80;61.78;99250.59;5016961;28;20029;-92
2022/05/03 01:53:31;;;;;;;8.80;6.03;;;;;;;14.03;61.54;99274.88;5034482;28;20029;-93
2022/05/03 01:56:25;;;;;;;11.63;6.93;;;;;;;14.23;61.73;99336.75;5034596;28;20033;-92
2022/05/03 01:58:59;;;;;;;7.80;6.60;;;;;;;14.45;61.56;99358.59;5016377;28;20137;-92
2022/05/03 02:01:46;;;;;;;9.95;6.50;;;;;;;14.34;62.17;99369.00;5016425;28;20039;-92
2022/05/03 02:04:30;;;;;;;9.48;6.05;;;;;;;13.68;61.87;99243.25;5034479;28;20410;-93
2022/05/03 02:07:12;;;;;;;7.10;6.40;;;;;;;13.80;62.42;99269.19;5016758;28;20030;-91
2022/05/03 02:10:12;;;;;;;8.25;6.68;;;;;;;14.41;62.59;99346.72;5016642;28;20479;-92
2022/05/03 02:12:44;;;;;;;8.32;6.95;;;;;;;14.44;62.25;99358.81;5012513;28;20095;-93
2022/05/03 02:15:13;;;;;;;7.10;6.40;;;;;;;13.25;61.92;99173.91;5034077;28;20457;-93
2022/05/03 02:17:51;;;;;;;9.10;6.15;;;;;;;14.46;62.07;99354.09;5016701;28;20441;-92
2022/05/03 02:20:54;;;;;;;9.55;7.03;;;;;;;14.43;62.31;99358.00;5028817;28;20121;-91
2022/05/03 02:23:34;;;;;;;8.52;6.43;;;;;;;14.43;61.95;99347.38;5055843;28;20022;-90
2022/05/03 02:26:22;;;;;;;8.95;6.68;;;;;;;14.46;61.86;99351.44;5039275;28;20065;-90
2022/05/03 02:29:18;;;;;;;8.57;5.97;;;;;;;14.37;62.33;99353.47;5038701;28;20092;-90
2022/05/03 02:32:01;;;;;;;10.65;6.60;;;;;;;14.11;62.49;99324.28;5054402;28;20025;-91
2022/05/03 02:34:59;;;;;;;7.78;5.88;;;;;;;14.28;62.69;99360.84;5034140;28;20548;-93
2022/05/03 02:37:34;;;;;;;7.88;7.03;;;;;;;14.24;62.81;99348.19;4995878;28;20047;-92
2022/05/03 02:40:11;;;;;;;7.38;6.45;;;;;;;14.39;63.02;99355.94;5016262;28;20026;-92
2022/05/03 02:42:37;;;;;;;7.70;5.93;;;;;;;13.87;62.51;99272.63;5016338;28;20516;-92
2022/05/03 02:45:05;;;;;;;8.63;7.00;;;;;;;14.25;62.75;99333.88;5016351;28;20030;-92
2022/05/03 02:47:33;;;;;;;6.07;5.32;;;;;;;14.39;62.60;99358.56;5034553;28;20025;-91
2022/05/03 02:50:20;;;;;;;6.45;5.78;;;;;;;14.03;62.96;99305.91;5017147;28;20086;-92
2022/05/03 02:53:08;;;;;;;7.22;5.68;;;;;;;14.42;62.87;99355.50;5033916;28;20022;-92
2022/05/03 02:55:54;;;;;;;8.25;5.88;;;;;;;13.90;62.74;99306.72;5015885;28;20040;-90
2022/05/03 02:58:25;;;;;;;8.38;6.15;;;;;;;14.37;62.51;99361.44;5015778;28;20055;-93
2022/05/03 03:04:46;;;;;;;7.47;6.03;;;;;;;14.30;63.03;99365.94;5033616;28;20036;-93
2022/05/03 03:07:18;;;;;;;8.07;5.45;;;;;;;14.01;62.70;99319.38;5015782;28;20026;-93
2022/05/03 03:09:48;;;;;;;7.32;5.78;;;;;;;13.66;62.16;99269.19;5015501;28;20021;-93
2022/05/03 03:12:26;;;;;;;8.35;5.47;;;;;;;14.28;62.03;99378.63;5015241;28;20025;-93
2022/05/03 03:15:04;;;;;;;9.43;6.03;;;;;;;13.93;62.50;99320.41;5015708;28;20051;-92
2022/05/03 03:17:40;;;;;;;7.20;6.20;;;;;;;13.37;62.52;99235.09;5033099;28;20029;-92
2022/05/03 03:20:12;;;;;;;6.90;6.03;;;;;;;13.67;62.70;99299.19;5032993;28;20043;-94
2022/05/03 03:22:43;;;;;;;8.70;5.70;;;;;;;13.33;62.14;99239.97;5032795;28;20029;-93
2022/05/03 03:25:14;;;;;;;8.17;5.50;;;;;;;14.13;62.49;99356.78;5033096;28;20576;-92
2022/05/03 03:27:42;;;;;;;9.32;6.32;;;;;;;12.65;62.67;99130.59;5015681;28;20117;-93
2022/05/03 03:30:09;;;;;;;10.60;6.85;;;;;;;12.28;62.66;99081.63;5015673;28;20022;-93
2022/05/03 03:32:37;;;;;;;9.38;8.35;;;;;;;14.35;63.05;99408.63;5033346;28;20422;-92
2022/05/03 03:35:04;;;;;;;9.35;7.47;;;;;;;14.30;63.27;99384.53;5020389;28;20036;-90
2022/05/03 03:37:34;;;;;;;10.57;8.38;;;;;;;13.67;63.52;99299.19;5038709;28;20116;-89
2022/05/03 03:40:00;;;;;;;9.20;8.30;;;;;;;14.06;63.57;99382.47;5037488;28;20034;-91
2022/05/03 03:42:29;;;;;;;9.15;7.18;;;;;;;13.85;63.19;99380.84;5055598;28;20033;-90
2022/05/03 03:45:00;;;;;;;8.38;7.32;;;;;;;14.22;63.44;99429.88;5056634;28;20071;-91
2022/05/03 03:47:27;;;;;;;10.48;7.28;;;;;;;13.66;63.54;99311.63;5021470;28;20419;-93
2022/05/03 03:49:53;;;;;;;10.05;8.00;;;;;;;13.76;63.36;99336.94;5032986;28;20092;-93
2022/05/03 03:52:19;;;;;;;8.65;7.32;;;;;;;13.68;63.64;99316.75;5015248;28;20025;-92
2022/05/03 03:54:45;;;;;;;10.27;8.10;;;;;;;14.20;63.29;99421.31;5015501;28;20021;-93
2022/05/03 03:57:14;;;;;;;8.40;7.60;;;;;;;13.85;63.48;99392.28;5015298;28;20064;-94
2022/05/03 03:59:39;;;;;;;8.77;7.35;;;;;;;13.77;63.73;99371.25;5033118;28;20025;-93
2022/05/03 04:02:05;;;;;;;9.55;8.27;;;;;;;13.44;63.33;99319.97;5034072;28;20092;-93
2022/05/03 04:04:35;;;;;;;8.82;7.90;;;;;;;13.67;63.49;99365.50;5034154;28;20036;-93
2022/05/03 04:07:03;;;;;;;9.75;8.40;;;;;;;12.79;63.71;99221.50;5015566;28;20418;-92
2022/05/03 04:09:28;;;;;;;8.88;7.97;;;;;;;12.94;63.80;99259.25;5032503;28;20025;-93
2022/05/03 04:11:54;;;;;;;10.23;8.50;;;;;;;13.55;63.83;99348.56;5014891;28;20056;-94
2022/05/03 04:14:20;;;;;;;10.07;8.50;;;;;;;12.64;63.80;99255.28;5015061;28;20025;-93
2022/05/03 04:16:45;;;;;;;11.00;9.90;;;;;;;13.52;64.20;99365.69;5032671;28;20028;-94
2022/05/03 04:19:11;;;;;;;13.30;8.90;;;;;;;13.10;64.09;99304.97;5014969;28;20059;-93
2022/05/03 04:21:37;;;;;;;13.30;10.35;;;;;;;13.09;64.18;99305.97;5015193;28;20036;-93
2022/05/03 04:24:03;;;;;;;12.48;10.00;;;;;;;13.19;64.42;99328.47;5032385;28;20030;-93
2022/05/03 04:26:28;;;;;;;12.75;9.85;;;;;;;13.36;64.61;99379.28;5014703;28;20032;-92
2022/05/03 04:28:58;;;;;;;10.88;9.77;;;;;;;13.51;64.87;99393.25;5032326;28;20482;-92
2022/05/03 04:31:28;;;;;;;10.75;9.60;;;;;;;13.13;64.77;99339.84;5015042;28;20021;-94
2022/05/03 04:33:54;;;;;;;10.00;8.98;;;;;;;13.74;64.58;99429.19;5015334;28;20025;-94
2022/05/03 04:36:20;;;;;;;10.00;9.00;;;;;;;13.70;64.91;99426.13;5032564;28;20036;-95
2022/05/03 04:38:46;;;;;;;12.27;9.90;;;;;;;13.41;64.62;99399.94;5015137;28;20026;-92
2022/05/03 04:41:11;;;;;;;11.05;9.98;;;;;;;13.46;64.63;99398.31;5015098;28;20087;-93
2022/05/03 04:43:37;;;;;;;10.20;8.98;;;;;;;12.88;64.75;99338.72;5014941;28;20041;-95
2022/05/03 04:46:02;;;;;;;11.75;8.93;;;;;;;12.59;64.86;99300.06;5016222;28;20021;-94
2022/05/03 04:48:28;;;;;;;11.85;9.30;;;;;;;13.35;65.02;99418.25;5018389;28;20025;-94
2022/05/03 04:50:53;;;;;;;15.73;11.77;;;;;;;12.68;65.04;99355.34;5018384;28;20029;-95
2022/05/03 04:53:19;;;;;;;11.48;10.15;;;;;;;13.12;65.47;99387.75;5018917;28;20490;-95
2022/05/03 04:55:44;;;;;;;13.48;10.00;;;;;;;12.72;65.32;99313.41;5036474;28;20028;-94
2022/05/03 04:58:10;;;;;;;10.10;8.90;;;;;;;12.71;65.25;99325.00;5018645;28;20061;-95
2022/05/03 05:00:36;;;;;;;10.73;9.10;;;;;;;12.39;65.18;99314.03;5035888;28;20540;-94
2022/05/03 05:03:01;;;;;;;8.85;7.88;;;;;;;12.91;65.22;99336.50;5018720;28;20036;-96
2022/05/03 05:05:26;;;;;;;8.77;7.55;;;;;;;13.00;64.85;99361.81;5018403;28;20176;-94
2022/05/03 05:07:52;;;;;;;8.77;7.88;;;;;;;13.33;64.66;99424.78;5018384;28;20130;-95
2022/05/03 05:10:23;;;;;;;8.07;7.07;;;;;;;13.02;64.74;99380.16;5018617;28;20029;-95
2022/05/03 05:12:51;;;;;;;9.65;8.40;;;;;;;13.07;65.00;99406.09;5018187;28;20044;-94
2022/05/03 05:15:17;;;;;;;8.38;7.47;;;;;;;12.67;64.91;99337.00;5018271;28;20029;-94
2022/05/03 05:17:42;;;;;;;8.48;7.68;;;;;;;12.76;65.02;99338.47;5021893;28;20033;-92
2022/05/03 05:20:08;;;;;;;7.97;7.25;;;;;;;12.54;64.53;99305.13;5023862;28;20490;-95
2022/05/03 05:22:34;;;;;;;9.52;7.35;;;;;;;13.00;64.23;99374.25;5029935;28;20490;-94
2022/05/03 05:24:59;;;;;;;8.10;7.40;;;;;;;12.17;63.87;99259.53;5017896;28;20140;-94
2022/05/03 05:27:24;;;;;;;7.28;6.68;;;;;;;13.30;63.14;99431.28;5047799;28;20036;-94
2022/05/03 05:29:50;;;;;;;7.13;6.50;;;;;;;13.56;63.08;99465.06;5054745;28;20033;-94
2022/05/03 05:32:15;;;;;;;6.25;5.70;;;;;;;13.28;62.95;99401.50;5054544;28;20083;-94
2022/05/03 05:34:41;;;;;;;6.10;5.47;;;;;;;13.36;62.86;99405.81;5037139;28;20036;-94
2022/05/03 05:37:06;;;;;;;7.75;6.00;;;;;;;13.59;62.90;99474.47;5030384;28;20037;-95
2022/05/03 05:39:32;;;;;;;7.55;6.85;;;;;;;13.26;63.19;99408.84;5049099;28;20490;-94
2022/05/03 05:41:59;;;;;;;6.95;6.25;;;;;;;13.56;63.29;99467.72;5032247;28;20029;-95
2022/05/03 05:44:28;;;;;;;7.60;6.90;;;;;;;13.09;62.95;99422.59;5041362;28;20033;-94
2022/05/03 05:46:53;;;;;;;10.38;9.30;;;;;;;13.27;63.25;99454.72;5025508;28;20410;-95
2022/05/03 05:49:19;;;;;;;10.68;9.63;;;;;;;13.21;63.27;99447.56;5027736;28;20029;-95
2022/05/03 05:51:47;;;;;;;9.90;8.90;;;;;;;13.26;63.77;99442.50;5054425;28;20425;-96
2022/05/03 05:54:13;;;;;;;8.90;8.07;;;;;;;13.30;63.50;99449.84;5036853;28;20186;-95
2022/05/03 05:56:42;;;;;;;11.65;10.55;;;;;;;12.77;63.55;99363.13;5036496;28;20099;-95
2022/05/03 05:59:08;;;;;;;13.30;11.88;;;;;;;13.42;64.06;99481.97;5052987;28;20135;-94
2022/05/03 06:01:41;;;;;;;14.60;13.30;;;;;;;13.46;63.92;99488.50;5053972;28;20025;-96
2022/05/03 06:04:07;;;;;;;12.43;11.23;;;;;;;13.46;63.92;99491.16;5054332;28;20155;-96
2022/05/03 06:06:33;;;;;;;12.85;11.55;;;;;;;13.15;64.20;99456.28;5026214;28;20071;-95
2022/05/03 06:09:04;;;;;;;11.18;10.07;;;;;;;13.15;64.19;99459.75;5043266;28;20545;-95
2022/05/03 06:11:30;;;;;;;7.70;6.85;;;;;;;13.25;64.05;99494.69;5025602;28;20033;-96
2022/05/03 06:13:55;;;;;;;9.02;8.10;;;;;;;12.44;63.46;99390.22;5027347;28;20518;-95
2022/05/03 06:16:21;;;;;;;9.02;8.13;;;;;;;12.69;64.21;99419.75;5039165;28;20029;-96
2022/05/03 06:18:46;;;;;;;7.75;7.15;;;;;;;12.80;63.51;99461.59;5045045;28;20091;-96
2022/05/03 06:21:12;;;;;;;9.88;7.68;;;;;;;13.07;63.60;99498.84;5052054;28;20024;-96
2022/05/03 06:23:38;;;;;;;8.07;7.30;;;;;;;12.89;63.35;99488.75;5047418;28;20025;-94
2022/05/03 06:26:06;;;;;;;12.52;11.30;;;;;;;12.80;63.87;99471.38;5036411;28;20033;-96
2022/05/03 06:28:32;;;;;;;10.88;9.85;;;;;;;12.16;63.17;99373.53;5022780;28;20109;-96
2022/05/03 06:30:58;;;;;;;10.50;9.50;;;;;;;13.05;63.69;99485.78;5021276;28;20029;-96
2022/05/03 06:33:23;;;;;;;10.55;9.45;;;;;;;12.70;63.10;99453.16;5029009;28;20047;-94
2022/05/03 06:35:49;;;;;;;9.30;8.40;;;;;;;11.66;62.70;99272.97;5048426;28;20033;-94
2022/05/03 06:38:14;;;;;;;9.25;8.35;;;;;;;11.46;63.04;99254.28;5050683;28;20040;-95
2022/05/03 06:40:40;;;;;;;9.93;8.93;;;;;;;12.87;63.32;99459.78;5034637;28;20032;-95
2022/05/03 06:43:06;;;;;;;10.02;9.13;;;;;;;12.76;63.10;99459.53;5047428;28;20642;-95
2022/05/03 06:45:31;;;;;;;8.65;7.85;;;;;;;12.80;62.89;99450.19;5032246;28;20028;-96
2022/05/03 06:47:57;;;;;;;8.90;8.05;;;;;;;12.52;62.79;99394.53;5046413;28;20115;-96
2022/05/03 06:50:22;;;;;;;8.05;7.35;;;;;;;12.69;62.46;99419.75;5035042;28;20032;-96
2022/05/03 06:52:48;;;;;;;12.68;11.50;;;;;;;13.15;62.19;99498.69;5021842;28;20036;-95
2022/05/03 06:55:14;;;;;;;9.10;8.20;;;;;;;12.54;62.33;99403.13;5038081;28;20087;-96
2022/05/03 06:57:40;;;;;;;10.80;9.75;;;;;;;12.79;62.67;99416.75;5029282;28;20581;-95
2022/05/03 07:00:06;;;;;;;8.88;8.00;;;;;;;12.64;62.63;99404.44;5046522;28;20032;-96
2022/05/03 07:02:33;;;;;;;8.40;7.50;;;;;;;13.05;62.39;99460.09;5044136;28;20037;-94
2022/05/03 07:04:59;;;;;;;8.43;7.63;;;;;;;12.96;62.61;99463.94;5052476;28;20079;-96
2022/05/03 07:07:28;;;;;;;8.10;7.40;;;;;;;12.08;62.98;99311.78;5050310;28;20032;-95
2022/05/03 07:09:54;;;;;;;8.60;7.90;;;;;;;11.99;63.13;99293.63;5032909;28;20028;-95
2022/05/03 07:12:19;;;;;;;9.90;8.90;;;;;;;12.26;62.77;99347.53;5050095;28;20539;-96
2022/05/03 07:14:44;;;;;;;10.23;9.23;;;;;;;12.20;63.11;99338.53;5024076;28;20030;-95
2022/05/03 07:22:45;;;;;;;11.68;10.57;;;;;;;12.79;63.58;99438.75;5015618;28;20091;-94
2022/05/03 07:22:45;;;;;;;10.43;9.38;;;;;;;12.49;62.93;99363.16;5035566;28;20048;-96
2022/05/03 07:25:10;;;;;;;10.38;9.38;;;;;;;13.14;62.65;99484.63;5027364;28;20433;-95
2022/05/03 07:27:36;;;;;;;10.43;9.43;;;;;;;12.45;62.44;99414.88;5027230;28;20029;-96
2022/05/03 07:30:01;;;;;;;10.90;9.90;;;;;;;11.61;62.57;99229.59;5027123;28;20028;-96
2022/05/03 07:32:27;;;;;;;11.75;10.55;;;;;;;12.26;62.39;99339.59;5047759;28;20025;-96
2022/05/03 07:34:52;;;;;;;9.15;8.30;;;;;;;12.35;62.54;99349.84;5025885;28;20021;-95
2022/05/03 07:37:18;;;;;;;9.73;8.73;;;;;;;13.07;62.56;99457.25;5038133;28;20033;-96
2022/05/03 07:39:43;;;;;;;10.07;9.18;;;;;;;13.34;62.80;99516.56;5031238;28;20379;-96
2022/05/03 07:42:09;;;;;;;9.52;8.73;;;;;;;12.04;62.15;99289.38;5028227;28;20029;-96
2022/05/03 07:44:34;;;;;;;9.10;8.02;;;;;;;12.15;61.75;99288.03;5035461;28;20067;-96
2022/05/03 07:46:59;;;;;;;9.48;8.52;;;;;;;12.24;62.20;99341.63;5034234;28;20036;-96
2022/05/03 07:49:25;;;;;;;11.18;9.18;;;;;;;12.05;62.15;99301.59;5034774;28;20025;-96
2022/05/03 07:51:50;;;;;;;10.38;9.45;;;;;;;11.43;62.54;99212.38;5036452;28;20028;-96
2022/05/03 07:54:16;;;;;;;9.40;8.40;;;;;;;13.12;62.60;99509.69;5031473;28;20501;-95
2022/05/03 07:56:41;;;;;;;11.32;10.25;;;;;;;13.23;62.73;99503.88;5033362;28;20151;-95
2022/05/03 07:59:09;;;;;;;11.00;10.02;;;;;;;12.67;62.29;99430.53;5029686;28;20399;-96
2022/05/03 08:01:35;;;;;;;9.93;9.05;;;;;;;12.64;62.53;99408.91;5034320;28;20037;-96
2022/05/03 08:04:01;;;;;;;10.82;9.88;;;;;;;12.86;62.59;99442.25;5044115;28;20531;-96
2022/05/03 08:06:27;;;;;;;12.13;10.93;;;;;;;12.68;62.58;99418.13;5031390;28;20107;-96
2022/05/03 08:08:53;;;;;;;10.30;9.10;;;;;;;13.20;62.81;99514.88;5051616;28;20057;-96
2022/05/03 08:11:18;;;;;;;10.27;9.38;;;;;;;12.78;62.55;99431.81;5037630;28;20029;-96
2022/05/03 08:13:45;;;;;;;10.43;9.52;;;;;;;11.82;62.84;99322.16;5033989;28;20484;-96
2022/05/03 08:16:21;;;;;;;10.35;9.45;;;;;;;12.93;63.20;99463.50;5041068;28;20025;-95
2022/05/03 08:18:48;;;;;;;9.43;8.52;;;;;;;12.79;62.81;99430.81;5035877;28;20034;-94
2022/05/03 08:21:14;;;;;;;9.50;8.60;;;;;;;13.36;62.29;99533.91;5034191;28;20033;-95
2022/05/03 08:23:39;;;;;;;12.82;11.32;;;;;;;12.63;62.69;99434.59;5024769;28;20030;-96
2022/05/03 08:26:05;;;;;;;8.50;7.70;;;;;;;12.83;63.00;99518.69;5030945;28;20024;-96
2022/05/03 08:28:31;;;;;;;9.45;8.45;;;;;;;11.64;62.77;99297.97;5038860;28;20036;-96
2022/05/03 08:30:57;;;;;;;10.45;9.45;;;;;;;12.89;62.84;99504.66;5039421;28;20025;-95
2022/05/03 08:33:23;;;;;;;9.40;8.40;;;;;;;12.77;62.91;99488.47;5055308;28;20025;-96
2022/05/03 08:35:48;;;;;;;8.63;7.57;;;;;;;11.60;63.61;99323.97;5054011;28;20048;-93
2022/05/03 08:43:44;;;;;;;8.73;7.93;;;;;;;12.67;63.69;99514.47;5043876;28;20063;-93
2022/05/03 08:46:09;;;;;;;9.40;7.20;;;;;;;12.97;63.67;99562.81;5017168;28;20116;-96
2022/05/03 08:48:40;;;;;;;8.48;7.55;;;;;;;12.98;63.94;99543.25;5032334;28;20075;-94
2022/05/03 08:51:11;;;;;;;8.10;7.40;;;;;;;12.67;63.61;99504.72;5033952;28;20120;-95
2022/05/03 08:53:37;;;;;;;7.77;7.00;;;;;;;11.77;63.74;99364.19;5028378;28;20013;-96
2022/05/03 08:56:03;;;;;;;11.50;10.40;;;;;;;12.32;64.14;99442.06;5028847;28;20029;-95
2022/05/03 08:58:30;;;;;;;10.43;9.27;;;;;;;12.23;64.41;99420.22;5032583;28;20052;-95
2022/05/03 09:00:56;;;;;;;9.25;8.38;;;;;;;12.45;64.47;99471.28;5030122;28;20045;-95
2022/05/03 09:03:25;;;;;;;8.77;6.70;;;;;;;12.98;63.78;99508.78;5035425;28;20139;-94
2022/05/03 09:05:52;;;;;;;8.02;7.22;;;;;;;12.56;63.81;99438.16;5036612;28;20033;-93
2022/05/03 09:08:23;;;;;;;6.15;4.95;;;;;;;13.23;62.81;99554.25;5024959;28;20056;-95
2022/05/03 09:10:48;;;;;;;7.20;6.47;;;;;;;12.51;63.25;99457.28;5044617;28;20025;-93
2022/05/03 09:13:25;;;;;;;7.97;7.18;;;;;;;13.18;63.33;99548.69;5031909;28;20055;-94
2022/05/03 09:16:12;;;;;;;8.18;6.38;;;;;;;13.17;64.04;99555.84;5030252;28;20033;-95
2022/05/03 09:18:37;;;;;;;6.05;5.55;;;;;;;13.03;63.33;99567.34;5044323;28;20037;-95
2022/05/03 09:24:01;;;;;;;6.85;6.05;;;;;;;12.08;64.67;99393.00;5054215;28;20429;-95
2022/05/03 09:26:28;;;;;;;6.93;6.32;;;;;;;13.24;64.41;99559.34;5037937;28;20025;-94
2022/05/03 09:29:03;;;;;;;7.28;6.10;;;;;;;11.94;63.93;99355.03;5036041;28;20067;-93
2022/05/03 09:31:37;;;;;;;6.22;5.68;;;;;;;12.87;64.16;99519.94;5029356;28;21241;-94
2022/05/03 09:34:19;;;;;;;6.15;5.57;;;;;;;12.03;63.82;99375.06;5023702;28;20034;-95
2022/05/03 09:36:53;;;;;;;6.15;5.65;;;;;;;12.13;63.73;99403.03;5024327;28;20552;-95
2022/05/03 09:39:24;;;;;;;5.55;5.05;;;;;;;12.86;63.75;99479.34;5036100;28;20086;-94
2022/05/03 09:42:12;;;;;;;8.48;4.75;;;;;;;12.22;63.56;99375.41;5019791;28;20112;-94
2022/05/03 09:44:50;;;;;;;5.32;4.82;;;;;;;13.22;63.43;99542.81;5033760;28;20100;-93
2022/05/03 09:47:17;;;;;;;5.18;4.78;;;;;;;13.23;63.79;99551.59;5037570;28;20040;-94
2022/05/03 09:49:43;;;;;;;5.53;5.03;;;;;;;13.19;63.91;99542.38;5037854;28;20055;-94
2022/05/03 09:52:28;;;;;;;6.38;5.78;;;;;;;13.22;64.37;99548.13;5055403;28;20104;-94
2022/05/03 09:54:59;;;;;;;6.63;6.03;;;;;;;13.25;63.72;99541.59;5054040;28;20053;-94
2022/05/03 09:57:26;;;;;;;4.63;4.22;;;;;;;13.16;63.73;99550.69;5054718;28;20135;-93
2022/05/03 09:59:54;;;;;;;5.25;4.85;;;;;;;12.29;63.66;99408.84;5050730;28;20049;-93
2022/05/03 10:02:22;;;;;;;6.65;6.03;;;;;;;12.75;64.05;99471.13;5034244;28;20026;-94
2022/05/03 10:04:49;;;;;;;7.20;6.40;;;;;;;13.28;64.26;99539.38;5016204;28;20025;-94
2022/05/03 10:07:15;;;;;;;5.78;5.28;;;;;;;13.32;63.88;99553.88;5033845;28;20067;-92
2022/05/03 10:09:43;;;;;;;6.13;5.35;;;;;;;12.66;63.99;99433.38;5053709;28;20020;-93
2022/05/03 10:12:11;;;;;;;5.05;4.60;;;;;;;13.41;63.78;99549.28;5035506;28;20021;-92
2022/05/03 10:14:44;;;;;;;7.45;5.80;;;;;;;12.96;63.85;99484.31;5030594;28;20024;-94
2022/05/03 10:20:45;;;;;;;6.30;5.70;;;;;;;13.34;63.79;99540.44;5054434;28;20051;-91
2022/05/03 10:23:28;;;;;;;6.85;6.05;;;;;;;13.45;63.54;99550.53;5053292;28;20029;-93
2022/05/03 10:26:00;;;;;;;6.45;5.90;;;;;;;12.89;64.31;99462.25;5020719;28;20486;-91
2022/05/03 10:28:26;;;;;;;;;;;;;;;13.24;64.61;99554.03;5021380;28;20021;-91
2022/05/03 10:31:13;;;;;;;5.80;5.30;;;;;;;13.31;63.69;99554.91;5050530;28;19979;-92
2022/05/03 10:33:40;;;;;;;7.55;6.75;;;;;;;12.93;64.12;99492.66;5034930;28;20490;-91
2022/05/03 10:36:34;;;;;;;7.00;6.40;;;;;;;13.30;64.96;99550.63;5025077;28;20029;-92
2022/05/03 10:39:17;;;;;;;6.75;6.15;;;;;;;12.53;64.60;99422.66;5046038;28;20033;-92
2022/05/03 10:42:01;;;;;;;8.88;8.05;;;;;;;13.03;64.75;99524.94;5030757;28;20086;-92
2022/05/03 10:44:55;;;;;;;8.10;7.40;;;;;;;13.39;65.07;99553.13;5033829;28;20504;-93
2022/05/03 10:47:49;;;;;;;8.80;7.93;;;;;;;13.48;65.30;99554.63;5052248;28;20033;-93
2022/05/03 10:50:19;;;;;;;7.65;6.95;;;;;;;13.52;64.41;99558.50;5050090;28;20060;-92
2022/05/03 10:52:55;;;;;;;8.27;7.47;;;;;;;13.55;64.55;99547.50;5031787;28;20032;-94
2022/05/03 10:55:21;;;;;;;7.35;6.65;;;;;;;12.66;64.34;99431.56;5029298;28;20446;-92
2022/05/03 10:58:25;;;;;;;10.27;9.23;;;;;;;13.53;64.95;99560.16;5051485;28;20049;-93
2022/05/03 11:01:06;;;;;;;7.25;6.53;;;;;;;13.44;64.45;99546.22;5034868;28;20041;-92
2022/05/03 11:03:54;;;;;;;7.15;6.10;;;;;;;13.51;65.42;99562.19;5035287;28;20020;-93
2022/05/03 11:06:19;;;;;;;8.45;7.60;;;;;;;13.56;64.50;99555.25;5033908;28;20041;-93
2022/05/03 11:14:11;;;;;;;6.70;6.00;;;;;;;13.82;64.47;99551.91;5060055;28;20525;-88
2022/05/03 11:16:37;;;;;;;6.18;5.57;;;;;;;13.77;64.17;99572.91;5048028;28;20508;-91
2022/05/03 11:19:29;;;;;;;7.88;6.88;;;;;;;13.80;64.63;99553.94;5059916;28;20017;-91
2022/05/03 11:21:55;;;;;;;;;;;;;;;13.59;64.55;99551.41;5046325;28;20056;-92
2022/05/03 11:24:28;;;;;;;5.28;4.78;;;;;;;13.18;64.26;99485.91;5050029;28;19936;-91
2022/05/03 11:27:00;;;;;;;5.75;4.85;;;;;;;13.16;64.23;99479.94;5052617;28;20029;-91
2022/05/03 11:29:30;;;;;;;5.25;4.80;;;;;;;12.93;63.96;99423.75;5034248;28;20044;-91
2022/05/03 11:31:59;;;;;;;6.07;5.20;;;;;;;13.13;63.94;99467.06;5035029;28;20029;-91
2022/05/03 11:34:24;;;;;;;6.38;4.95;;;;;;;12.87;64.13;99413.94;5037240;28;20031;-91
2022/05/03 11:36:50;;;;;;;9.40;8.07;;;;;;;13.19;64.11;99439.81;5043903;28;20092;-91
2022/05/03 11:39:20;;;;;;;5.45;4.50;;;;;;;13.88;64.04;99540.50;5054973;28;20028;-90
2022/05/03 11:41:47;;;;;;;6.03;4.97;;;;;;;13.95;63.61;99536.03;5049464;28;20504;-90
2022/05/03 11:44:14;;;;;;;8.07;7.25;;;;;;;14.07;63.87;99536.25;5052431;28;20583;-90
2022/05/03 11:46:41;;;;;;;7.65;6.85;;;;;;;14.21;63.40;99537.13;5032366;28;20029;-92
2022/05/03 11:49:11;;;;;;;6.25;4.43;;;;;;;14.13;63.00;99505.47;5035427;28;20037;-90
2022/05/03 11:57:24;;;;;;;5.47;4.97;;;;;;;13.90;62.05;99437.59;5042123;28;20840;-91
2022/05/03 11:59:51;;;;;;;6.22;5.63;;;;;;;14.55;61.42;99499.78;5052597;28;20040;-90
2022/05/03 12:02:29;;;;;;;6.20;5.20;;;;;;;14.26;60.99;99455.00;5048619;28;20033;-91
2022/05/03 12:05:04;;;;;;;5.45;4.70;;;;;;;14.86;60.48;99527.59;5050020;28;20481;-89
2022/05/03 12:07:36;;;;;;;7.05;6.35;;;;;;;14.89;60.52;99528.00;5043924;28;20025;-90
2022/05/03 12:10:16;;;;;;;6.03;5.43;;;;;;;14.98;59.95;99522.47;5041544;28;20021;-90
2022/05/03 12:12:45;;;;;;;4.13;3.72;;;;;;;15.01;59.46;99525.53;5035462;28;20110;-90
2022/05/03 12:15:19;;;;;;;6.35;5.07;;;;;;;15.00;59.56;99517.78;5028539;28;20395;-91
2022/05/03 12:17:59;;;;;;;6.65;4.60;;;;;;;15.13;59.86;99525.72;5029571;28;20025;-90
2022/05/03 12:20:26;;;;;;;6.30;4.78;;;;;;;15.16;58.70;99520.81;5032344;28;20030;-88
2022/05/03 12:23:15;;;;;;;4.60;3.65;;;;;;;15.22;57.91;99517.31;5054951;28;20421;-90